createdAt,value
2023-01-12T00:00:08.921Z,0.00
2023-01-12T00:01:08.887Z,0.00
2023-01-12T00:02:08.948Z,0.00
2023-01-12T00:03:08.907Z,0.00
2023-01-12T00:04:08.971Z,0.00
2023-01-12T00:05:08.925Z,0.00
2023-01-12T00:06:08.933Z,0.00
2023-01-12T00:07:08.944Z,0.00
2023-01-12T00:08:08.954Z,0.00
2023-01-12T00:09:08.981Z,0.00
2023-01-12T00:10:08.973Z,0.00
2023-01-12T00:11:08.984Z,0.00
2023-01-12T00:12:08.994Z,0.00
2023-01-12T00:13:09.003Z,0.00
2023-01-12T00:14:09.009Z,0.00
2023-01-12T00:15:09.023Z,0.00
2023-01-12T00:16:09.095Z,0.00
2023-01-12T00:17:09.115Z,0.00
2023-01-12T00:18:09.052Z,0.00
2023-01-12T00:19:09.063Z,0.00
2023-01-12T00:20:09.072Z,0.00
2023-01-12T00:21:09.082Z,0.00
2023-01-12T00:22:09.098Z,0.00
2023-01-12T00:23:09.102Z,0.00
2023-01-12T00:24:09.113Z,0.00
2023-01-12T00:25:09.120Z,0.00
2023-01-12T00:26:09.130Z,0.00
2023-01-12T00:27:09.147Z,0.00
2023-01-12T00:28:09.147Z,0.00
2023-01-12T00:29:09.163Z,0.00
2023-01-12T00:30:09.172Z,0.00
2023-01-12T00:31:09.202Z,0.00
2023-01-12T00:32:09.188Z,0.00
2023-01-12T00:33:09.200Z,0.00
2023-01-12T00:34:09.210Z,0.00
2023-01-12T00:35:09.218Z,0.00
2023-01-12T00:36:09.228Z,0.00
2023-01-12T00:37:09.235Z,0.00
2023-01-12T00:38:09.248Z,0.00
2023-01-12T00:39:09.258Z,0.00
2023-01-12T00:40:09.269Z,0.00
2023-01-12T00:41:09.276Z,0.00
2023-01-12T00:42:09.300Z,0.00
2023-01-12T00:43:09.300Z,0.00
2023-01-12T00:44:09.309Z,0.00
2023-01-12T00:45:09.318Z,0.00
2023-01-12T00:46:09.360Z,0.00
2023-01-12T00:47:09.342Z,0.00
2023-01-12T00:48:09.344Z,0.00
2023-01-12T00:49:09.355Z,0.00
2023-01-12T00:50:09.365Z,0.00
2023-01-12T00:51:09.375Z,0.00
2023-01-12T00:52:11.365Z,0.00
2023-01-12T00:53:09.393Z,0.00
2023-01-12T00:54:09.407Z,0.00
2023-01-12T00:55:09.420Z,0.00
2023-01-12T00:56:09.425Z,0.00
2023-01-12T00:57:09.433Z,0.00
2023-01-12T00:58:09.447Z,0.00
2023-01-12T00:59:09.467Z,0.00
2023-01-12T01:00:09.460Z,0.00
2023-01-12T01:01:09.571Z,0.00
2023-01-12T01:02:09.608Z,0.00
2023-01-12T01:03:09.493Z,0.00
2023-01-12T01:04:09.506Z,0.00
2023-01-12T01:05:09.512Z,0.00
2023-01-12T01:06:09.526Z,0.00
2023-01-12T01:07:09.542Z,0.00
2023-01-12T01:08:09.548Z,0.00
2023-01-12T01:09:09.550Z,0.00
2023-01-12T01:10:09.565Z,0.00
2023-01-12T01:11:09.588Z,0.00
2023-01-12T01:12:09.582Z,0.00
2023-01-12T01:13:09.592Z,0.00
2023-01-12T01:14:09.601Z,0.00
2023-01-12T01:15:09.609Z,0.00
2023-01-12T01:16:09.661Z,0.00
2023-01-12T01:17:09.653Z,0.00
2023-01-12T01:18:09.639Z,0.00
2023-01-12T01:19:09.648Z,0.00
2023-01-12T01:20:09.659Z,0.00
2023-01-12T01:21:09.668Z,0.00
2023-01-12T01:22:09.677Z,0.00
2023-01-12T01:23:09.689Z,0.00
2023-01-12T01:24:09.701Z,0.00
2023-01-12T01:25:09.706Z,0.00
2023-01-12T01:26:09.719Z,0.00
2023-01-12T01:27:09.725Z,0.00
2023-01-12T01:28:09.737Z,0.00
2023-01-12T01:29:09.746Z,0.00
2023-01-12T01:30:09.762Z,0.00
2023-01-12T01:31:09.804Z,0.00
2023-01-12T01:32:09.775Z,0.00
2023-01-12T01:33:09.787Z,0.00
2023-01-12T01:34:09.795Z,0.00
2023-01-12T01:35:09.805Z,0.00
2023-01-12T01:36:09.818Z,0.00
2023-01-12T01:37:09.826Z,0.00
2023-01-12T01:38:09.836Z,0.00
2023-01-12T01:39:09.847Z,0.00
2023-01-12T01:40:09.863Z,0.00
2023-01-12T01:41:09.864Z,0.00
2023-01-12T01:42:09.875Z,0.00
2023-01-12T01:43:09.885Z,0.00
2023-01-12T01:44:09.895Z,0.00
2023-01-12T01:45:09.902Z,0.00
2023-01-12T01:46:09.938Z,0.00
2023-01-12T01:47:09.936Z,0.00
2023-01-12T01:48:09.952Z,0.00
2023-01-12T01:49:09.968Z,0.00
2023-01-12T01:50:09.954Z,0.00
2023-01-12T01:51:09.963Z,0.00
2023-01-12T01:52:09.973Z,0.00
2023-01-12T01:53:09.993Z,0.00
2023-01-12T01:54:10.011Z,0.00
2023-01-12T01:55:10.013Z,0.00
2023-01-12T01:56:10.018Z,0.00
2023-01-12T01:57:10.023Z,0.00
2023-01-12T01:58:10.039Z,0.00
2023-01-12T01:59:10.045Z,0.00
2023-01-12T02:00:10.066Z,0.00
2023-01-12T02:01:10.100Z,0.00
2023-01-12T02:02:10.121Z,0.00
2023-01-12T02:03:10.161Z,0.00
2023-01-12T02:04:10.100Z,0.00
2023-01-12T02:05:10.115Z,0.00
2023-01-12T02:06:10.114Z,0.00
2023-01-12T02:07:10.128Z,0.00
2023-01-12T02:08:10.136Z,0.00
2023-01-12T02:09:10.148Z,0.00
2023-01-12T02:10:10.156Z,0.00
2023-01-12T02:11:10.164Z,0.00
2023-01-12T02:12:10.178Z,0.00
2023-01-12T02:13:10.189Z,0.00
2023-01-12T02:14:10.198Z,0.00
2023-01-12T02:15:10.218Z,0.00
2023-01-12T02:16:10.272Z,0.00
2023-01-12T02:17:10.228Z,0.00
2023-01-12T02:18:10.237Z,0.00
2023-01-12T02:19:10.258Z,0.00
2023-01-12T02:20:10.258Z,0.00
2023-01-12T02:21:10.276Z,0.00
2023-01-12T02:22:10.297Z,0.00
2023-01-12T02:23:10.291Z,0.00
2023-01-12T02:24:10.313Z,0.00
2023-01-12T02:25:10.310Z,0.00
2023-01-12T02:26:10.321Z,0.00
2023-01-12T02:27:10.342Z,0.00
2023-01-12T02:28:10.341Z,0.00
2023-01-12T02:29:10.352Z,0.00
2023-01-12T02:30:10.364Z,0.00
2023-01-12T02:31:10.412Z,0.00
2023-01-12T02:32:10.386Z,0.00
2023-01-12T02:33:10.393Z,0.00
2023-01-12T02:34:10.420Z,0.00
2023-01-12T02:35:10.415Z,0.00
2023-01-12T02:36:10.428Z,0.00
2023-01-12T02:37:10.437Z,0.00
2023-01-12T02:38:10.447Z,0.00
2023-01-12T02:39:10.460Z,0.00
2023-01-12T02:40:10.471Z,0.00
2023-01-12T02:41:10.477Z,0.00
2023-01-12T02:42:10.489Z,0.00
2023-01-12T02:43:10.502Z,0.00
2023-01-12T02:44:10.510Z,0.00
2023-01-12T02:45:10.525Z,0.00
2023-01-12T02:46:10.551Z,0.00
2023-01-12T02:47:10.539Z,0.00
2023-01-12T02:48:10.549Z,0.00
2023-01-12T02:49:10.583Z,0.00
2023-01-12T02:50:10.571Z,0.00
2023-01-12T02:51:10.605Z,0.00
2023-01-12T02:52:10.601Z,0.00
2023-01-12T02:53:10.601Z,0.00
2023-01-12T02:54:10.613Z,0.00
2023-01-12T02:55:10.619Z,0.00
2023-01-12T02:56:10.637Z,0.00
2023-01-12T02:57:10.642Z,0.00
2023-01-12T02:58:10.661Z,0.00
2023-01-12T02:59:10.663Z,0.00
2023-01-12T03:00:10.676Z,0.00
2023-01-12T03:01:10.829Z,0.00
2023-01-12T03:02:10.714Z,0.00
2023-01-12T03:03:10.775Z,0.00
2023-01-12T03:04:10.719Z,0.00
2023-01-12T03:05:10.724Z,0.00
2023-01-12T03:06:10.739Z,0.00
2023-01-12T03:07:10.745Z,0.00
2023-01-12T03:08:10.754Z,0.00
2023-01-12T03:09:10.776Z,0.00
2023-01-12T03:10:10.776Z,0.00
2023-01-12T03:11:10.787Z,0.00
2023-01-12T03:12:10.796Z,0.00
2023-01-12T03:13:10.813Z,0.00
2023-01-12T03:14:10.819Z,0.00
2023-01-12T03:15:10.831Z,0.00
2023-01-12T03:16:10.870Z,0.00
2023-01-12T03:17:10.847Z,0.00
2023-01-12T03:18:10.858Z,0.00
2023-01-12T03:19:10.873Z,0.00
2023-01-12T03:20:10.880Z,0.00
2023-01-12T03:21:10.903Z,0.00
2023-01-12T03:22:10.899Z,0.00
2023-01-12T03:23:10.907Z,0.00
2023-01-12T03:24:10.922Z,0.00
2023-01-12T03:25:10.936Z,0.00
2023-01-12T03:26:10.943Z,0.00
2023-01-12T03:27:10.952Z,0.00
2023-01-12T03:28:10.985Z,0.00
2023-01-12T03:29:10.977Z,0.00
2023-01-12T03:30:10.982Z,0.00
2023-01-12T03:31:11.064Z,0.00
2023-01-12T03:32:11.006Z,0.00
2023-01-12T03:33:11.013Z,0.00
2023-01-12T03:34:11.026Z,0.00
2023-01-12T03:35:11.033Z,0.00
2023-01-12T03:36:11.048Z,0.00
2023-01-12T03:37:11.055Z,0.00
2023-01-12T03:38:11.063Z,0.00
2023-01-12T03:39:11.077Z,0.00
2023-01-12T03:40:11.085Z,0.00
2023-01-12T03:41:11.095Z,0.00
2023-01-12T03:42:11.106Z,0.00
2023-01-12T03:43:11.115Z,0.00
2023-01-12T03:44:11.132Z,0.00
2023-01-12T03:45:11.141Z,0.00
2023-01-12T03:46:11.156Z,0.00
2023-01-12T03:47:11.161Z,0.00
2023-01-12T03:48:11.171Z,0.00
2023-01-12T03:49:11.182Z,0.00
2023-01-12T03:50:11.197Z,0.00
2023-01-12T03:51:11.199Z,0.00
2023-01-12T03:52:11.214Z,0.00
2023-01-12T03:53:11.220Z,0.00
2023-01-12T03:54:11.233Z,0.00
2023-01-12T03:55:11.249Z,0.00
2023-01-12T03:56:11.250Z,0.00
2023-01-12T03:57:11.261Z,0.00
2023-01-12T03:58:11.276Z,0.00
2023-01-12T03:59:11.282Z,0.00
2023-01-12T04:00:11.313Z,0.00
2023-01-12T04:01:11.357Z,0.00
2023-01-12T04:02:11.318Z,0.00
2023-01-12T04:03:11.372Z,0.00
2023-01-12T04:04:11.342Z,0.00
2023-01-12T04:05:11.356Z,0.00
2023-01-12T04:06:11.365Z,0.00
2023-01-12T04:07:11.373Z,0.00
2023-01-12T04:08:11.377Z,0.00
2023-01-12T04:09:11.389Z,0.00
2023-01-12T04:10:11.401Z,0.00
2023-01-12T04:11:11.412Z,0.00
2023-01-12T04:12:11.420Z,0.00
2023-01-12T04:13:11.431Z,0.00
2023-01-12T04:14:11.444Z,0.00
2023-01-12T04:15:11.461Z,0.00
2023-01-12T04:16:11.478Z,0.00
2023-01-12T04:17:11.475Z,0.00
2023-01-12T04:18:11.489Z,0.00
2023-01-12T04:19:11.501Z,0.00
2023-01-12T04:20:11.504Z,0.00
2023-01-12T04:21:11.518Z,0.00
2023-01-12T04:22:11.544Z,0.00
2023-01-12T04:23:11.536Z,0.00
2023-01-12T04:24:11.548Z,0.00
2023-01-12T04:25:11.616Z,0.00
2023-01-12T04:26:11.570Z,0.00
2023-01-12T04:27:11.579Z,0.00
2023-01-12T04:28:11.594Z,0.00
2023-01-12T04:29:11.605Z,0.00
2023-01-12T04:30:11.617Z,0.00
2023-01-12T04:31:11.623Z,0.00
2023-01-12T04:32:11.638Z,0.00
2023-01-12T04:33:11.645Z,0.00
2023-01-12T04:34:11.653Z,0.00
2023-01-12T04:35:11.670Z,0.00
2023-01-12T04:36:11.684Z,0.00
2023-01-12T04:37:11.689Z,0.00
2023-01-12T04:38:11.703Z,0.00
2023-01-12T04:39:11.707Z,0.00
2023-01-12T04:40:11.721Z,0.00
2023-01-12T04:41:11.737Z,0.00
2023-01-12T04:42:11.741Z,0.00
2023-01-12T04:43:11.753Z,0.00
2023-01-12T04:44:11.763Z,0.00
2023-01-12T04:45:11.776Z,0.00
2023-01-12T04:46:11.815Z,0.00
2023-01-12T04:47:11.796Z,0.00
2023-01-12T04:48:11.813Z,0.00
2023-01-12T04:49:11.835Z,0.00
2023-01-12T04:50:11.872Z,0.00
2023-01-12T04:51:11.842Z,0.00
2023-01-12T04:52:11.849Z,0.00
2023-01-12T04:53:11.901Z,0.00
2023-01-12T04:54:11.877Z,0.00
2023-01-12T04:55:11.894Z,0.00
2023-01-12T04:56:11.905Z,0.00
2023-01-12T04:57:11.905Z,0.00
2023-01-12T04:58:11.920Z,0.00
2023-01-12T04:59:11.928Z,0.00
2023-01-12T05:00:11.936Z,0.00
2023-01-12T05:01:12.045Z,0.00
2023-01-12T05:02:12.026Z,0.00
2023-01-12T05:03:11.974Z,0.00
2023-01-12T05:04:12.027Z,0.00
2023-01-12T05:05:11.989Z,0.00
2023-01-12T05:06:12.006Z,0.00
2023-01-12T05:07:12.015Z,0.00
2023-01-12T05:08:12.022Z,0.00
2023-01-12T05:09:12.034Z,0.00
2023-01-12T05:10:12.060Z,0.00
2023-01-12T05:11:12.056Z,0.00
2023-01-12T05:12:12.075Z,0.00
2023-01-12T05:13:12.076Z,0.00
2023-01-12T05:14:12.089Z,0.00
2023-01-12T05:15:12.116Z,0.00
2023-01-12T05:16:12.134Z,0.00
2023-01-12T05:17:12.119Z,0.00
2023-01-12T05:18:12.136Z,0.00
2023-01-12T05:19:12.143Z,0.00
2023-01-12T05:20:12.155Z,0.00
2023-01-12T05:21:12.163Z,0.00
2023-01-12T05:22:12.190Z,0.00
2023-01-12T05:23:12.193Z,0.00
2023-01-12T05:24:12.197Z,0.00
2023-01-12T05:25:12.207Z,0.00
2023-01-12T05:26:12.222Z,0.00
2023-01-12T05:27:12.231Z,0.00
2023-01-12T05:28:12.243Z,0.00
2023-01-12T05:29:12.271Z,0.00
2023-01-12T05:30:12.263Z,0.00
2023-01-12T05:31:12.390Z,0.00
2023-01-12T05:32:12.297Z,0.00
2023-01-12T05:33:12.296Z,0.00
2023-01-12T05:34:12.306Z,0.00
2023-01-12T05:35:12.318Z,0.00
2023-01-12T05:36:12.332Z,0.00
2023-01-12T05:37:12.340Z,0.00
2023-01-12T05:38:12.351Z,0.00
2023-01-12T05:39:12.364Z,0.00
2023-01-12T05:40:12.374Z,0.00
2023-01-12T05:41:12.385Z,0.00
2023-01-12T05:42:12.397Z,0.00
2023-01-12T05:43:12.407Z,0.00
2023-01-12T05:44:12.418Z,0.00
2023-01-12T05:45:12.428Z,0.00
2023-01-12T05:46:12.468Z,0.00
2023-01-12T05:47:12.452Z,0.00
2023-01-12T05:48:12.463Z,0.00
2023-01-12T05:49:12.472Z,0.00
2023-01-12T05:50:12.493Z,0.00
2023-01-12T05:51:12.509Z,0.00
2023-01-12T05:52:12.513Z,0.00
2023-01-12T05:53:12.524Z,0.00
2023-01-12T05:54:12.529Z,0.00
2023-01-12T05:55:12.541Z,0.00
2023-01-12T05:56:12.555Z,0.00
2023-01-12T05:57:12.563Z,0.00
2023-01-12T05:58:12.581Z,0.00
2023-01-12T05:59:12.584Z,0.00
2023-01-12T06:00:12.622Z,0.00
2023-01-12T06:01:12.636Z,0.00
2023-01-12T06:02:12.632Z,0.00
2023-01-12T06:03:12.628Z,0.00
2023-01-12T06:04:12.643Z,0.00
2023-01-12T06:05:12.664Z,0.00
2023-01-12T06:06:12.663Z,0.00
2023-01-12T06:07:12.674Z,0.00
2023-01-12T06:08:12.686Z,0.00
2023-01-12T06:09:12.699Z,0.00
2023-01-12T06:10:12.715Z,0.00
2023-01-12T06:11:12.722Z,0.00
2023-01-12T06:12:12.733Z,0.00
2023-01-12T06:13:12.753Z,0.00
2023-01-12T06:14:12.755Z,0.00
2023-01-12T06:15:12.765Z,0.00
2023-01-12T06:16:12.865Z,0.00
2023-01-12T06:17:12.793Z,0.00
2023-01-12T06:18:12.799Z,0.00
2023-01-12T06:19:13.176Z,0.00
2023-01-12T06:20:12.823Z,0.00
2023-01-12T06:21:12.835Z,0.00
2023-01-12T06:22:12.843Z,0.00
2023-01-12T06:23:12.856Z,0.00
2023-01-12T06:24:12.871Z,0.00
2023-01-12T06:25:12.878Z,0.00
2023-01-12T06:26:12.892Z,0.00
2023-01-12T06:27:12.903Z,0.00
2023-01-12T06:28:12.914Z,0.00
2023-01-12T06:29:12.925Z,0.00
2023-01-12T06:30:12.933Z,0.00
2023-01-12T06:31:12.992Z,0.00
2023-01-12T06:32:12.959Z,0.00
2023-01-12T06:33:12.969Z,0.00
2023-01-12T06:34:13.001Z,0.00
2023-01-12T06:35:19.200Z,4.00
2023-01-12T06:36:13.008Z,4.00
2023-01-12T06:37:13.035Z,0.00
2023-01-12T06:38:13.026Z,0.00
2023-01-12T06:39:13.039Z,0.00
2023-01-12T06:40:13.052Z,4.00
2023-01-12T06:41:13.064Z,4.00
2023-01-12T06:42:13.073Z,4.00
2023-01-12T06:43:13.085Z,8.00
2023-01-12T06:44:13.096Z,8.00
2023-01-12T06:45:13.108Z,8.00
2023-01-12T06:46:13.134Z,8.00
2023-01-12T06:47:13.129Z,12.00
2023-01-12T06:48:13.152Z,12.00
2023-01-12T06:49:13.166Z,16.00
2023-01-12T06:50:13.167Z,16.00
2023-01-12T06:51:13.175Z,20.00
2023-01-12T06:52:13.191Z,24.00
2023-01-12T06:53:13.200Z,28.00
2023-01-12T06:54:13.216Z,32.00
2023-01-12T06:55:13.221Z,36.00
2023-01-12T06:56:13.235Z,44.00
2023-01-12T06:57:13.243Z,48.00
2023-01-12T06:58:13.252Z,56.00
2023-01-12T06:59:13.270Z,64.00
2023-01-12T07:00:13.302Z,72.00
2023-01-12T07:01:13.350Z,84.00
2023-01-12T07:02:13.393Z,92.00
2023-01-12T07:03:13.311Z,104.00
2023-01-12T07:04:13.356Z,116.00
2023-01-12T07:05:13.334Z,132.00
2023-01-12T07:06:13.346Z,144.00
2023-01-12T07:07:13.376Z,160.00
2023-01-12T07:08:13.372Z,176.00
2023-01-12T07:09:13.381Z,192.00
2023-01-12T07:10:13.411Z,204.00
2023-01-12T07:11:13.413Z,220.00
2023-01-12T07:12:13.414Z,224.00
2023-01-12T07:13:13.424Z,228.00
2023-01-12T07:14:13.438Z,232.00
2023-01-12T07:15:13.448Z,240.00
2023-01-12T07:16:13.525Z,252.00
2023-01-12T07:17:13.473Z,264.00
2023-01-12T07:18:13.493Z,276.00
2023-01-12T07:19:13.496Z,296.00
2023-01-12T07:20:13.517Z,316.00
2023-01-12T07:21:13.560Z,340.00
2023-01-12T07:22:13.543Z,368.00
2023-01-12T07:23:13.540Z,404.00
2023-01-12T07:24:13.553Z,444.00
2023-01-12T07:25:13.565Z,492.00
2023-01-12T07:26:13.588Z,548.00
2023-01-12T07:27:13.588Z,608.00
2023-01-12T07:28:13.607Z,672.00
2023-01-12T07:29:13.609Z,728.00
2023-01-12T07:30:13.623Z,776.00
2023-01-12T07:31:13.644Z,812.00
2023-01-12T07:32:13.646Z,852.00
2023-01-12T07:33:13.661Z,884.00
2023-01-12T07:34:13.670Z,912.00
2023-01-12T07:35:13.681Z,928.00
2023-01-12T07:36:13.696Z,960.00
2023-01-12T07:37:13.715Z,1004.00
2023-01-12T07:38:13.737Z,1068.00
2023-01-12T07:39:13.744Z,1132.00
2023-01-12T07:40:13.744Z,1200.00
2023-01-12T07:41:13.750Z,1260.00
2023-01-12T07:42:13.762Z,1312.00
2023-01-12T07:43:13.796Z,1360.00
2023-01-12T07:44:13.786Z,1392.00
2023-01-12T07:45:13.809Z,1380.00
2023-01-12T07:46:13.856Z,1348.00
2023-01-12T07:47:13.820Z,1324.00
2023-01-12T07:48:13.834Z,1312.00
2023-01-12T07:49:13.843Z,1316.00
2023-01-12T07:50:13.856Z,1344.00
2023-01-12T07:51:13.867Z,1364.00
2023-01-12T07:52:13.881Z,1380.00
2023-01-12T07:53:13.888Z,1416.00
2023-01-12T07:54:13.901Z,1460.00
2023-01-12T07:55:13.924Z,1492.00
2023-01-12T07:56:13.931Z,1524.00
2023-01-12T07:57:13.944Z,1576.00
2023-01-12T07:58:13.949Z,1604.00
2023-01-12T07:59:13.961Z,1592.00
2023-01-12T08:00:13.975Z,1564.00
2023-01-12T08:01:14.036Z,1556.00
2023-01-12T08:02:14.036Z,1596.00
2023-01-12T08:03:14.124Z,1668.00
2023-01-12T08:04:14.027Z,1800.00
2023-01-12T08:05:14.069Z,1948.00
2023-01-12T08:06:14.044Z,2120.00
2023-01-12T08:07:14.062Z,2284.00
2023-01-12T08:08:14.070Z,2404.00
2023-01-12T08:09:14.085Z,2440.00
2023-01-12T08:10:14.108Z,2400.00
2023-01-12T08:11:14.107Z,2344.00
2023-01-12T08:12:14.124Z,2308.00
2023-01-12T08:13:14.137Z,2220.00
2023-01-12T08:14:14.143Z,2072.00
2023-01-12T08:15:14.154Z,1980.00
2023-01-12T08:16:14.244Z,1928.00
2023-01-12T08:17:14.190Z,1852.00
2023-01-12T08:18:14.194Z,1808.00
2023-01-12T08:19:14.209Z,1828.00
2023-01-12T08:20:14.225Z,1896.00
2023-01-12T08:21:14.242Z,2036.00
2023-01-12T08:22:14.241Z,2192.00
2023-01-12T08:23:14.264Z,2344.00
2023-01-12T08:24:14.276Z,2516.00
2023-01-12T08:25:14.279Z,2724.00
2023-01-12T08:26:14.295Z,2772.00
2023-01-12T08:27:14.302Z,2676.00
2023-01-12T08:28:14.318Z,2528.00
2023-01-12T08:29:14.326Z,2336.00
2023-01-12T08:30:14.340Z,2192.00
2023-01-12T08:31:14.397Z,2140.00
2023-01-12T08:32:14.385Z,2120.00
2023-01-12T08:33:14.373Z,2124.00
2023-01-12T08:34:14.387Z,2144.00
2023-01-12T08:35:14.406Z,2188.00
2023-01-12T08:36:14.420Z,2280.00
2023-01-12T08:37:14.429Z,2396.00
2023-01-12T08:38:14.442Z,2520.00
2023-01-12T08:39:14.451Z,2644.00
2023-01-12T08:40:14.471Z,2784.00
2023-01-12T08:41:14.479Z,2992.00
2023-01-12T08:42:14.484Z,3220.00
2023-01-12T08:43:14.503Z,3404.00
2023-01-12T08:44:14.511Z,3612.00
2023-01-12T08:45:14.543Z,3852.00
2023-01-12T08:46:14.598Z,4112.00
2023-01-12T08:47:14.554Z,4360.00
2023-01-12T08:48:14.561Z,4544.00
2023-01-12T08:49:16.782Z,4612.00
2023-01-12T08:50:14.591Z,4528.00
2023-01-12T08:51:14.604Z,4320.00
2023-01-12T08:52:14.625Z,4104.00
2023-01-12T08:53:14.629Z,3988.00
2023-01-12T08:54:14.650Z,3984.00
2023-01-12T08:55:14.661Z,4072.00
2023-01-12T08:56:14.662Z,4156.00
2023-01-12T08:57:14.675Z,4136.00
2023-01-12T08:58:14.687Z,4068.00
2023-01-12T08:59:14.718Z,4044.00
2023-01-12T09:00:14.720Z,4064.00
2023-01-12T09:01:14.838Z,4076.00
2023-01-12T09:02:14.856Z,4144.00
2023-01-12T09:03:14.752Z,4308.00
2023-01-12T09:04:14.778Z,4552.00
2023-01-12T09:05:14.775Z,4840.00
2023-01-12T09:06:14.823Z,4976.00
2023-01-12T09:07:14.817Z,4904.00
2023-01-12T09:08:14.825Z,4668.00
2023-01-12T09:09:14.829Z,4368.00
2023-01-12T09:10:14.840Z,4048.00
2023-01-12T09:11:14.858Z,3756.00
2023-01-12T09:12:14.866Z,3524.00
2023-01-12T09:13:14.883Z,3368.00
2023-01-12T09:14:14.898Z,3284.00
2023-01-12T09:15:14.906Z,3304.00
2023-01-12T09:16:15.019Z,3424.00
2023-01-12T09:17:14.936Z,3540.00
2023-01-12T09:18:14.945Z,3468.00
2023-01-12T09:19:14.960Z,3204.00
2023-01-12T09:20:14.970Z,2900.00
2023-01-12T09:21:14.985Z,2656.00
2023-01-12T09:22:14.998Z,2444.00
2023-01-12T09:23:15.012Z,2304.00
2023-01-12T09:24:15.024Z,2312.00
2023-01-12T09:25:15.036Z,2624.00
2023-01-12T09:26:15.049Z,3348.00
2023-01-12T09:27:15.063Z,4288.00
2023-01-12T09:28:15.080Z,5172.00
2023-01-12T09:29:15.109Z,5896.00
2023-01-12T09:30:15.119Z,6296.00
2023-01-12T09:31:16.107Z,6180.00
2023-01-12T09:32:15.660Z,5780.00
2023-01-12T09:33:15.141Z,5484.00
2023-01-12T09:34:15.161Z,5532.00
2023-01-12T09:35:15.174Z,5808.00
2023-01-12T09:36:15.180Z,6064.00
2023-01-12T09:37:15.194Z,6324.00
2023-01-12T09:38:15.204Z,6536.00
2023-01-12T09:39:26.163Z,6576.00
2023-01-12T09:40:15.232Z,6528.00
2023-01-12T09:41:15.248Z,6272.00
2023-01-12T09:42:15.274Z,5944.00
2023-01-12T09:43:15.273Z,5400.00
2023-01-12T09:44:15.293Z,4744.00
2023-01-12T09:45:15.301Z,4380.00
2023-01-12T09:46:15.311Z,4380.00
2023-01-12T09:47:15.325Z,4764.00
2023-01-12T09:48:15.338Z,5228.00
2023-01-12T09:49:15.353Z,5548.00
2023-01-12T09:50:15.386Z,5944.00
2023-01-12T09:51:15.389Z,6196.00
2023-01-12T09:52:15.395Z,6532.00
2023-01-12T09:53:15.406Z,6820.00
2023-01-12T09:54:15.426Z,6544.00
2023-01-12T09:55:15.438Z,6096.00
2023-01-12T09:56:15.459Z,6000.00
2023-01-12T09:57:28.408Z,6256.00
2023-01-12T09:58:15.474Z,6484.00
2023-01-12T09:59:18.294Z,6792.00
2023-01-12T10:00:15.502Z,7440.00
2023-01-12T10:01:28.176Z,8640.00
2023-01-12T10:02:15.570Z,9560.00
2023-01-12T10:03:15.577Z,9972.00
2023-01-12T10:04:15.551Z,9964.00
2023-01-12T10:05:16.521Z,9992.00
2023-01-12T10:06:15.586Z,10588.00
2023-01-12T10:07:15.595Z,11016.00
2023-01-12T10:08:15.620Z,10824.00
2023-01-12T10:09:15.629Z,10328.00
2023-01-12T10:10:15.649Z,9868.00
2023-01-12T10:11:15.668Z,9324.00
2023-01-12T10:12:15.689Z,8544.00
2023-01-12T10:13:15.703Z,7948.00
2023-01-12T10:14:15.707Z,7496.00
2023-01-12T10:15:15.708Z,6984.00
2023-01-12T10:16:15.742Z,6444.00
2023-01-12T10:17:15.742Z,6052.00
2023-01-12T10:18:15.749Z,5868.00
2023-01-12T10:19:15.768Z,6044.00
2023-01-12T10:20:17.574Z,6508.00
2023-01-12T10:21:15.806Z,7132.00
2023-01-12T10:22:15.807Z,7092.00
2023-01-12T10:23:15.834Z,7064.00
2023-01-12T10:24:15.839Z,7424.00
2023-01-12T10:25:15.848Z,7504.00
2023-01-12T10:26:15.863Z,7296.00
2023-01-12T10:27:15.882Z,7112.00
2023-01-12T10:28:15.895Z,6840.00
2023-01-12T10:29:15.907Z,6360.00
2023-01-12T10:30:15.919Z,6028.00
2023-01-12T10:31:15.992Z,5952.00
2023-01-12T10:32:15.953Z,5448.00
2023-01-12T10:33:15.997Z,5244.00
2023-01-12T10:34:15.991Z,5532.00
2023-01-12T10:35:15.999Z,5476.00
2023-01-12T10:36:16.007Z,4760.00
2023-01-12T10:37:16.024Z,4296.00
2023-01-12T10:38:16.036Z,4860.00
2023-01-12T10:39:16.051Z,4708.00
2023-01-12T10:40:16.067Z,4292.00
2023-01-12T10:41:16.078Z,4148.00
2023-01-12T10:42:16.094Z,3868.00
2023-01-12T10:43:20.178Z,3908.00
2023-01-12T10:44:16.121Z,3740.00
2023-01-12T10:45:16.138Z,3352.00
2023-01-12T10:46:16.198Z,3748.00
2023-01-12T10:47:16.164Z,4112.00
2023-01-12T10:48:16.178Z,4092.00
2023-01-12T10:49:16.194Z,4100.00
2023-01-12T10:50:16.209Z,4508.00
2023-01-12T10:51:16.225Z,5080.00
2023-01-12T10:52:16.235Z,5056.00
2023-01-12T10:53:16.251Z,5008.00
2023-01-12T10:54:16.279Z,5020.00
2023-01-12T10:55:16.283Z,5560.00
2023-01-12T10:56:16.289Z,6072.00
2023-01-12T10:57:16.303Z,5828.00
2023-01-12T10:58:16.316Z,5492.00
2023-01-12T10:59:16.333Z,5388.00
2023-01-12T11:00:16.348Z,5676.00
2023-01-12T11:01:16.449Z,6124.00
2023-01-12T11:02:16.644Z,6244.00
2023-01-12T11:03:16.388Z,6020.00
2023-01-12T11:04:16.402Z,5580.00
2023-01-12T11:05:16.416Z,4952.00
2023-01-12T11:06:16.441Z,4676.00
2023-01-12T11:07:16.452Z,4228.00
2023-01-12T11:08:16.458Z,3744.00
2023-01-12T11:09:16.475Z,3628.00
2023-01-12T11:10:16.489Z,3644.00
2023-01-12T11:11:16.505Z,3748.00
2023-01-12T11:12:16.511Z,3568.00
2023-01-12T11:13:16.526Z,3120.00
2023-01-12T11:14:22.457Z,2948.00
2023-01-12T11:15:16.556Z,3140.00
2023-01-12T11:16:16.643Z,3728.00
2023-01-12T11:17:16.579Z,4528.00
2023-01-12T11:18:16.597Z,4160.00
2023-01-12T11:19:16.623Z,3332.00
2023-01-12T11:20:16.626Z,3088.00
2023-01-12T11:21:16.639Z,4056.00
2023-01-12T11:22:16.646Z,4236.00
2023-01-12T11:23:16.673Z,4624.00
2023-01-12T11:24:16.672Z,4492.00
2023-01-12T11:25:16.688Z,4656.00
2023-01-12T11:26:16.706Z,5228.00
2023-01-12T11:27:16.717Z,5592.00
2023-01-12T11:28:16.725Z,5336.00
2023-01-12T11:29:16.739Z,4864.00
2023-01-12T11:30:16.860Z,4208.00
2023-01-12T11:31:16.765Z,3628.00
2023-01-12T11:32:16.779Z,2896.00
2023-01-12T11:33:16.795Z,2496.00
2023-01-12T11:34:16.807Z,2536.00
2023-01-12T11:35:16.822Z,2860.00
2023-01-12T11:36:16.832Z,2756.00
2023-01-12T11:37:16.843Z,2684.00
2023-01-12T11:38:16.878Z,2536.00
2023-01-12T11:39:16.868Z,2344.00
2023-01-12T11:40:16.915Z,2652.00
2023-01-12T11:41:19.036Z,2568.00
2023-01-12T11:42:16.908Z,2936.00
2023-01-12T11:43:16.919Z,4856.00
2023-01-12T11:44:16.931Z,5968.00
2023-01-12T11:45:16.944Z,7052.00
2023-01-12T11:46:17.019Z,7060.00
2023-01-12T11:47:16.973Z,6632.00
2023-01-12T11:48:16.985Z,6712.00
2023-01-12T11:49:16.999Z,6832.00
2023-01-12T11:50:17.006Z,6664.00
2023-01-12T11:51:17.027Z,6332.00
2023-01-12T11:52:17.033Z,6280.00
2023-01-12T11:53:17.051Z,5232.00
2023-01-12T11:54:17.068Z,4848.00
2023-01-12T11:55:17.080Z,4924.00
2023-01-12T11:56:17.093Z,4720.00
2023-01-12T11:57:17.107Z,4688.00
2023-01-12T11:58:17.123Z,4832.00
2023-01-12T11:59:17.124Z,4880.00
2023-01-12T12:00:17.136Z,4620.00
2023-01-12T12:01:17.209Z,4452.00
2023-01-12T12:02:17.217Z,4584.00
2023-01-12T12:03:17.210Z,3988.00
2023-01-12T12:04:17.227Z,4300.00
2023-01-12T12:05:17.202Z,3704.00
2023-01-12T12:06:17.214Z,3424.00
2023-01-12T12:07:17.243Z,3964.00
2023-01-12T12:08:17.245Z,4804.00
2023-01-12T12:09:17.260Z,5748.00
2023-01-12T12:10:17.278Z,5584.00
2023-01-12T12:11:17.283Z,5124.00
2023-01-12T12:12:17.294Z,5300.00
2023-01-12T12:13:17.316Z,5172.00
2023-01-12T12:14:17.319Z,4440.00
2023-01-12T12:15:17.337Z,4588.00
2023-01-12T12:16:17.422Z,4044.00
2023-01-12T12:17:17.363Z,3664.00
2023-01-12T12:18:17.373Z,3944.00
2023-01-12T12:19:17.404Z,3704.00
2023-01-12T12:20:17.403Z,2868.00
2023-01-12T12:21:17.414Z,2592.00
2023-01-12T12:22:17.424Z,2644.00
2023-01-12T12:23:17.440Z,2416.00
2023-01-12T12:24:17.457Z,2432.00
2023-01-12T12:25:17.466Z,2212.00
2023-01-12T12:26:17.481Z,2276.00
2023-01-12T12:27:17.493Z,2576.00
2023-01-12T12:28:17.505Z,3008.00
2023-01-12T12:29:17.529Z,3608.00
2023-01-12T12:30:17.537Z,4252.00
2023-01-12T12:31:17.592Z,4800.00
2023-01-12T12:32:17.573Z,5968.00
2023-01-12T12:33:17.578Z,4968.00
2023-01-12T12:34:17.598Z,4556.00
2023-01-12T12:35:17.604Z,4256.00
2023-01-12T12:36:17.609Z,4088.00
2023-01-12T12:37:17.625Z,3764.00
2023-01-12T12:38:17.649Z,2676.00
2023-01-12T12:39:17.668Z,2208.00
2023-01-12T12:40:17.676Z,1984.00
2023-01-12T12:41:17.677Z,1884.00
2023-01-12T12:42:17.692Z,2084.00
2023-01-12T12:43:17.709Z,2948.00
2023-01-12T12:44:17.723Z,3252.00